Aérodrome :
LOGIN :

S'inscrire | Disclaimer

   EN    FR    IT 

 










Légende :    VFR   VFR Marginal   IFR   IFR Intensif   IFR Très Intensif
Visi : 
Plafond : 
>= 8 km
>= 3000ft
5 à 8 km
1000 à 3000 ft
1500m à 5 km
500 à 1000 ft
800 à 1500m
200 à 500 ft
< 800m
< 200 ft
Symboles :   Orages  Brouillard  Fortes neiges  Fortes précipitations  Vent > 20 kt
SIGMETs :   Divers  Orages  Givrage  Turbulence  Onde Orograph.  Cendres Volcan.







- Altitude de l'aérodrome : 280 ft
- Code IATA : FAE


EKVG - Vagar

DERNIER METAR :
  • 191621Z 11010KT 9999 FEW003 BKN005 BKN010 12/11 Q0999

METARs EXPIRÉS :
  • 191550Z 12008KT 9999 FEW002 BKN004 BKN008 12/11 Q0999
  • 191521Z 11009KT 9999 FEW002 BKN004 BKN007 12/11 Q0999
  • 191450Z 12007KT 9999 -DZRA FEW002 BKN004 BKN006 12/12 Q0999
  • 191420Z AUTO 13008KT 8000 -RA BKN004/// BKN048/// 12/11 Q0999
  • 191350Z AUTO 12009KT 9999 BKN006/// 12/11 Q0998

TAF TAF EKVG
Valide du 19 à 15h jusqu'au 19 à 20h UTC


191407Z 1915/1920 14012KT 9999 BKN015
TEMPO 1915/1920 2000 SHRA BR BKN002 SCT015CB
Pas de NOTAMs connus pour ce terrain.



MET'MAP, la Météo Aéronautique d'un coup d'oeil ! - Copyright ORBIFLY Décembre 2007 - Disclaimer

ORBIFLY MET'MAP TEAM :

Programmation & Développement : Alexandra Zaïnal
Conception & Développement : Baudouin d'Aumeries
Co-Programmation & Développement : Marc-Olivier Méhu
Soutien technique & logistique : Manuel Goepfert

Contact : metmap@orbifly.com




SOURCES & CREDITS :

   NOAA